Black Star — 9HA2911 — position and weather

sailwx.info

Track history (hours):
 
Tides and Currents Weather Stations Pressure Air Temp Water Temp Dewpoint Dewpoint Depression Visibility Wind Speed Wind Dir Waves Ship Positions

Black Star

Last reported at 2016-May-03 06:24 UTC. Time now 2016-May-03 06:47 UTC.
Position N 37°17' E 004°34'.

Length 128 m; draft 7.5 m.

Type: Tanker. MMSI: 256714000.

Date/timePositionNaut miles runAvg speedWind from/ knotsBaromVisibWave heightAir tempDewpointWater temp
2016-May-03 06:24N 37°17' E 004°34'43710.0
2016-May-01 10:33N 37°01' E 013°41'1212.2
2016-May-01 09:34N 36°56' E 013°54'1212.5
2016-May-01 08:34N 36°50' E 014°08'1212.3
2016-May-01 07:34N 36°44' E 014°22'1211.9
2016-May-01 06:34N 36°39' E 014°35'2512.0
2016-May-01 04:30N 36°30' E 015°04'1612.9
2016-May-01 03:15N 36°29' E 015°24'2412.7
2016-May-01 01:23N 36°29' E 015°53'2612.8
2016-Apr-30 23:22N 36°28' E 016°25'1312.6
2016-Apr-30 22:19N 36°27' E 016°42'32511.9
2016-Apr-29 19:05N 36°41' E 023°26'1912.7
2016-Apr-29 17:33N 36°59' E 023°37'1312.7
2016-Apr-29 16:33N 37°11' E 023°41'1212.6
2016-Apr-29 15:33N 37°24' E 023°44'1312.6
2016-Apr-29 14:33N 37°36' E 023°43'1212.2
2016-Apr-29 13:33N 37°48' E 023°38'1010.2
2016-Apr-29 12:33N 37°57' E 023°34'5 4.5
2016-Apr-29 11:30N 38°02' E 023°33'0 0.0
2016-Apr-29 10:33N 38°02' E 023°33'0 0.0
2016-Apr-29 08:30N 38°02' E 023°33'0 0.0
2016-Apr-29 07:27N 38°02' E 023°33'0 0.0
2016-Apr-29 06:24N 38°02' E 023°33'0 0.0
2016-Apr-29 05:24N 38°02' E 023°33'0 0.0
2016-Apr-29 04:30N 38°02' E 023°33'0 0.0
2016-Apr-29 03:33N 38°02' E 023°33'0 0.0
2016-Apr-29 02:33N 38°02' E 023°33'0 0.0
2016-Apr-29 01:30N 38°02' E 023°33'0 0.0
2016-Apr-29 00:33N 38°02' E 023°33'0 0.0
2016-Apr-28 23:33N 38°02' E 023°33'0 0.0
2016-Apr-28 22:27N 38°02' E 023°33'0 0.0
2016-Apr-28 21:33N 38°02' E 023°33'0 0.0
2016-Apr-28 20:33N 38°02' E 023°33'0 0.0
2016-Apr-28 19:21N 38°02' E 023°33'0 0.0
2016-Apr-28 18:33N 38°02' E 023°33'0 0.0
2016-Apr-28 17:33N 38°02' E 023°33'0 0.0
2016-Apr-28 16:27N 38°02' E 023°33'0 0.0
2016-Apr-28 15:21N 38°02' E 023°33'0 0.0
2016-Apr-28 14:27N 38°02' E 023°33'0 0.0
2016-Apr-28 13:33N 38°02' E 023°33'0 0.0
2016-Apr-28 12:33N 38°02' E 023°33'0 0.0
2016-Apr-28 11:27N 38°02' E 023°33'0 0.0
2016-Apr-28 10:27N 38°02' E 023°33'0 0.0
2016-Apr-28 09:24N 38°02' E 023°33'0 0.0
2016-Apr-28 08:30N 38°02' E 023°33'0 0.0
2016-Apr-28 07:06N 38°02' E 023°33'0 0.0
2016-Apr-28 06:09N 38°02' E 023°33'0 0.0
2016-Apr-28 05:24N 38°02' E 023°33'0 0.0
2016-Apr-28 04:33N 38°02' E 023°33'0 0.0
2016-Apr-28 03:24N 38°02' E 023°33'0 0.0
2016-Apr-28 02:33N 38°02' E 023°33'0 0.0
2016-Apr-28 01:33N 38°02' E 023°33'0 0.0
2016-Apr-28 00:33N 38°02' E 023°33'0 0.0
2016-Apr-27 23:33N 38°02' E 023°33'0 0.0
2016-Apr-27 22:33N 38°02' E 023°33'0 0.0
2016-Apr-27 21:33N 38°02' E 023°33'0 0.0
2016-Apr-27 20:33N 38°02' E 023°33'0 0.0
2016-Apr-27 19:33N 38°02' E 023°33'0 0.0
2016-Apr-27 18:27N 38°02' E 023°33'0 0.0
2016-Apr-27 17:33N 38°02' E 023°33'0 0.0
2016-Apr-27 16:33N 38°02' E 023°33'0 0.0
2016-Apr-27 15:27N 38°02' E 023°33'0 0.0
2016-Apr-27 14:33N 38°02' E 023°33'0 0.0
2016-Apr-27 13:15N 38°02' E 023°33'0 0.0
2016-Apr-27 12:33N 38°02' E 023°33'0 0.0
2016-Apr-27 11:33N 38°02' E 023°33'0 0.0
2016-Apr-27 10:33N 38°02' E 023°33'0 0.0
2016-Apr-27 09:33N 38°02' E 023°33'1 1.3
2016-Apr-27 08:33N 38°01' E 023°33'7 7.0
2016-Apr-27 07:33N 37°54' E 023°36'8 7.7
2016-Apr-27 06:33N 37°47' E 023°41'1212.5
2016-Apr-27 05:33N 37°38' E 023°51'2411.7
2016-Apr-27 03:31N 37°46' E 024°20'286 8.4
2016-Apr-25 17:21N 40°57' E 028°55'294 7.6
2016-Apr-24 02:28N 43°49' E 034°18'1314.0
2016-Apr-24 01:33N 43°56' E 034°33'2914.0
2016-Apr-23 23:28N 44°12' E 035°07'7712.8
2016-Apr-23 17:29N 45°01' E 036°29'8 1.6
2016-Apr-23 12:29N 45°08' E 036°34'0 0.0
2016-Apr-23 10:29N 45°08' E 036°34'0 0.0
2016-Apr-23 09:29N 45°08' E 036°34'0 0.0
2016-Apr-23 08:23N 45°08' E 036°34'0 0.0
2016-Apr-23 07:29N 45°08' E 036°34'  
Track history (hours):
 
Tides and Currents Weather Stations Pressure Air Temp Water Temp Dewpoint Dewpoint Depression Visibility Wind Speed Wind Dir Waves Ship Positions

Black Star

Last reported at 2016-May-03 06:24 UTC. Time now 2016-May-03 06:47 UTC.
Position N 37°17' E 004°34'.

Length 128 m; draft 7.5 m.

Type: Tanker. MMSI: 256714000.

Date/timePositionNaut miles runAvg speedWind from/ knotsBaromVisibWave heightAir tempDewpointWater temp
2016-May-03 06:24N 37°17' E 004°34'43710.0
2016-May-01 10:33N 37°01' E 013°41'1212.2
2016-May-01 09:34N 36°56' E 013°54'1212.5
2016-May-01 08:34N 36°50' E 014°08'1212.3
2016-May-01 07:34N 36°44' E 014°22'1211.9
2016-May-01 06:34N 36°39' E 014°35'2512.0
2016-May-01 04:30N 36°30' E 015°04'1612.9
2016-May-01 03:15N 36°29' E 015°24'2412.7
2016-May-01 01:23N 36°29' E 015°53'2612.8
2016-Apr-30 23:22N 36°28' E 016°25'1312.6
2016-Apr-30 22:19N 36°27' E 016°42'32511.9
2016-Apr-29 19:05N 36°41' E 023°26'1912.7
2016-Apr-29 17:33N 36°59' E 023°37'1312.7
2016-Apr-29 16:33N 37°11' E 023°41'1212.6
2016-Apr-29 15:33N 37°24' E 023°44'1312.6
2016-Apr-29 14:33N 37°36' E 023°43'1212.2
2016-Apr-29 13:33N 37°48' E 023°38'1010.2
2016-Apr-29 12:33N 37°57' E 023°34'5 4.5
2016-Apr-29 11:30N 38°02' E 023°33'0 0.0
2016-Apr-29 10:33N 38°02' E 023°33'0 0.0
2016-Apr-29 08:30N 38°02' E 023°33'0 0.0
2016-Apr-29 07:27N 38°02' E 023°33'0 0.0
2016-Apr-29 06:24N 38°02' E 023°33'0 0.0
2016-Apr-29 05:24N 38°02' E 023°33'0 0.0
2016-Apr-29 04:30N 38°02' E 023°33'0 0.0
2016-Apr-29 03:33N 38°02' E 023°33'0 0.0
2016-Apr-29 02:33N 38°02' E 023°33'0 0.0
2016-Apr-29 01:30N 38°02' E 023°33'0 0.0
2016-Apr-29 00:33N 38°02' E 023°33'0 0.0
2016-Apr-28 23:33N 38°02' E 023°33'0 0.0
2016-Apr-28 22:27N 38°02' E 023°33'0 0.0
2016-Apr-28 21:33N 38°02' E 023°33'0 0.0
2016-Apr-28 20:33N 38°02' E 023°33'0 0.0
2016-Apr-28 19:21N 38°02' E 023°33'0 0.0
2016-Apr-28 18:33N 38°02' E 023°33'0 0.0
2016-Apr-28 17:33N 38°02' E 023°33'0 0.0
2016-Apr-28 16:27N 38°02' E 023°33'0 0.0
2016-Apr-28 15:21N 38°02' E 023°33'0 0.0
2016-Apr-28 14:27N 38°02' E 023°33'0 0.0
2016-Apr-28 13:33N 38°02' E 023°33'0 0.0
2016-Apr-28 12:33N 38°02' E 023°33'0 0.0
2016-Apr-28 11:27N 38°02' E 023°33'0 0.0
2016-Apr-28 10:27N 38°02' E 023°33'0 0.0
2016-Apr-28 09:24N 38°02' E 023°33'0 0.0
2016-Apr-28 08:30N 38°02' E 023°33'0 0.0
2016-Apr-28 07:06N 38°02' E 023°33'0 0.0
2016-Apr-28 06:09N 38°02' E 023°33'0 0.0
2016-Apr-28 05:24N 38°02' E 023°33'0 0.0
2016-Apr-28 04:33N 38°02' E 023°33'0 0.0
2016-Apr-28 03:24N 38°02' E 023°33'0 0.0
2016-Apr-28 02:33N 38°02' E 023°33'0 0.0
2016-Apr-28 01:33N 38°02' E 023°33'0 0.0
2016-Apr-28 00:33N 38°02' E 023°33'0 0.0
2016-Apr-27 23:33N 38°02' E 023°33'0 0.0
2016-Apr-27 22:33N 38°02' E 023°33'0 0.0
2016-Apr-27 21:33N 38°02' E 023°33'0 0.0
2016-Apr-27 20:33N 38°02' E 023°33'0 0.0
2016-Apr-27 19:33N 38°02' E 023°33'0 0.0
2016-Apr-27 18:27N 38°02' E 023°33'0 0.0
2016-Apr-27 17:33N 38°02' E 023°33'0 0.0
2016-Apr-27 16:33N 38°02' E 023°33'0 0.0
2016-Apr-27 15:27N 38°02' E 023°33'0 0.0
2016-Apr-27 14:33N 38°02' E 023°33'0 0.0
2016-Apr-27 13:15N 38°02' E 023°33'0 0.0
2016-Apr-27 12:33N 38°02' E 023°33'0 0.0
2016-Apr-27 11:33N 38°02' E 023°33'0 0.0
2016-Apr-27 10:33N 38°02' E 023°33'0 0.0
2016-Apr-27 09:33N 38°02' E 023°33'1 1.3
2016-Apr-27 08:33N 38°01' E 023°33'7 7.0
2016-Apr-27 07:33N 37°54' E 023°36'8 7.7
2016-Apr-27 06:33N 37°47' E 023°41'1212.5
2016-Apr-27 05:33N 37°38' E 023°51'2411.7
2016-Apr-27 03:31N 37°46' E 024°20'286 8.4
2016-Apr-25 17:21N 40°57' E 028°55'294 7.6
2016-Apr-24 02:28N 43°49' E 034°18'1314.0
2016-Apr-24 01:33N 43°56' E 034°33'2914.0
2016-Apr-23 23:28N 44°12' E 035°07'7712.8
2016-Apr-23 17:29N 45°01' E 036°29'8 1.6
2016-Apr-23 12:29N 45°08' E 036°34'0 0.0
2016-Apr-23 10:29N 45°08' E 036°34'0 0.0
2016-Apr-23 09:29N 45°08' E 036°34'0 0.0
2016-Apr-23 08:23N 45°08' E 036°34'0 0.0
2016-Apr-23 07:29N 45°08' E 036°34'  

Dump ship's entire track history